createdAt,value
2018-01-28T00:01:39.193Z,6.60
2018-01-28T00:06:42.781Z,6.50
2018-01-28T00:11:45.579Z,6.50
2018-01-28T00:39:48.078Z,6.30
2018-01-28T01:01:50.395Z,6.40
2018-01-28T01:06:53.536Z,6.40
2018-01-28T01:11:56.330Z,6.60
2018-01-28T01:16:59.080Z,6.50
2018-01-28T01:22:02.661Z,6.50
2018-01-28T01:27:05.444Z,6.40
2018-01-28T01:32:08.253Z,6.50
2018-01-28T01:37:11.036Z,6.60
2018-01-28T01:42:13.804Z,6.50
2018-01-28T01:47:16.601Z,6.60
2018-01-28T01:52:19.741Z,6.60
2018-01-28T01:57:22.558Z,6.70
2018-01-28T02:02:25.401Z,6.80
2018-01-28T02:07:28.915Z,6.80
2018-01-28T02:12:32.679Z,6.70
2018-01-28T02:17:35.839Z,6.80
2018-01-28T02:50:45.533Z,6.80
2018-01-28T02:56:17.080Z,6.80
2018-01-28T03:01:21.524Z,6.70
2018-01-28T03:06:24.791Z,6.90
2018-01-28T03:11:27.760Z,6.80
2018-01-28T03:16:30.683Z,6.80
2018-01-28T03:21:33.475Z,6.80
2018-01-28T03:26:37.184Z,6.70
2018-01-28T03:31:40.856Z,6.80
2018-01-28T03:36:45.653Z,6.70
2018-01-28T03:41:48.439Z,6.70
2018-01-28T03:46:51.245Z,6.80
2018-01-28T03:51:54.058Z,6.80
2018-01-28T03:56:56.834Z,6.80
2018-01-28T04:01:59.852Z,6.70
2018-01-28T04:07:02.755Z,6.80
2018-01-28T04:12:05.541Z,6.70
2018-01-28T04:17:08.588Z,6.60
2018-01-28T04:22:11.388Z,6.50
2018-01-28T04:27:14.334Z,6.60
2018-01-28T04:32:17.171Z,6.50
2018-01-28T04:37:19.968Z,6.50
2018-01-28T04:42:22.783Z,6.50
2018-01-28T04:47:25.570Z,6.40
2018-01-28T04:52:28.482Z,6.50
2018-01-28T04:57:31.916Z,6.50
2018-01-28T05:02:35.891Z,6.30
2018-01-28T05:07:39.498Z,6.30
2018-01-28T05:12:42.378Z,6.30
2018-01-28T05:17:45.187Z,6.10
2018-01-28T05:22:48.032Z,6.10
2018-01-28T05:27:50.910Z,6.00
2018-01-28T05:32:53.703Z,6.00
2018-01-28T05:37:56.511Z,6.00
2018-01-28T05:42:59.302Z,6.00
2018-01-28T05:48:02.092Z,6.00
2018-01-28T05:53:05.929Z,6.10
2018-01-28T05:58:10.099Z,6.00
2018-01-28T06:03:13.018Z,6.00
2018-01-28T06:08:15.820Z,6.00
2018-01-28T06:13:19.423Z,6.10
2018-01-28T06:18:22.275Z,6.10
2018-01-28T06:23:25.151Z,6.10
2018-01-28T06:28:28.764Z,6.10
2018-01-28T06:33:32.843Z,6.10
2018-01-28T06:38:35.630Z,6.00
2018-01-28T06:43:38.424Z,6.10
2018-01-28T06:48:42.111Z,6.20
2018-01-28T06:53:45.872Z,6.20
2018-01-28T06:58:48.740Z,6.30
2018-01-28T07:03:52.292Z,6.30
2018-01-28T07:08:55.127Z,6.20
2018-01-28T07:13:58.030Z,6.30
2018-01-28T07:19:01.342Z,6.20
2018-01-28T07:24:04.913Z,6.30
2018-01-28T07:29:07.767Z,6.20
2018-01-28T07:34:10.661Z,6.30
2018-01-28T07:39:13.462Z,6.40
2018-01-28T07:44:16.286Z,6.50
2018-01-28T07:49:19.112Z,6.40
2018-01-28T07:54:22.003Z,6.40
2018-01-28T07:59:24.844Z,6.50
2018-01-28T08:04:27.681Z,6.70
2018-01-28T08:09:31.330Z,6.60
2018-01-28T08:14:36.717Z,6.60
2018-01-28T08:19:39.535Z,6.70
2018-01-28T08:24:42.386Z,6.60
2018-01-28T08:29:45.347Z,6.70
2018-01-28T08:34:48.232Z,6.70
2018-01-28T08:39:51.101Z,6.80
2018-01-28T08:44:53.943Z,6.80
2018-01-28T08:49:56.750Z,6.80
2018-01-28T08:55:00.316Z,6.90
2018-01-28T09:00:03.172Z,6.80
2018-01-28T09:05:06.784Z,7.10
2018-01-28T09:10:09.681Z,7.00
2018-01-28T09:15:12.716Z,7.10
2018-01-28T09:20:15.579Z,7.00
2018-01-28T09:25:19.417Z,7.10
2018-01-28T09:30:23.025Z,7.20
2018-01-28T09:35:27.261Z,7.20
2018-01-28T09:40:30.522Z,7.20
2018-01-28T09:45:33.380Z,7.30
2018-01-28T09:50:36.933Z,7.50
2018-01-28T09:55:39.735Z,7.40
2018-01-28T10:00:42.747Z,7.50
2018-01-28T10:05:46.526Z,7.50
2018-01-28T10:10:50.107Z,7.60
2018-01-28T10:15:52.996Z,7.50
2018-01-28T10:20:55.801Z,7.60
2018-01-28T10:25:59.352Z,8.00
2018-01-28T10:31:02.249Z,7.90
2018-01-28T10:36:05.774Z,8.40
2018-01-28T10:41:09.284Z,8.50
2018-01-28T10:46:12.143Z,8.40
2018-01-28T10:51:14.916Z,8.60
2018-01-28T10:56:17.703Z,8.60
2018-01-28T11:01:20.518Z,8.70
2018-01-28T11:06:23.300Z,8.80
2018-01-28T11:11:26.072Z,8.90
2018-01-28T11:16:28.871Z,8.80
2018-01-28T11:21:31.835Z,8.90
2018-01-28T11:26:34.803Z,9.00
2018-01-28T11:31:38.022Z,9.10
2018-01-28T11:36:40.799Z,9.20
2018-01-28T11:41:44.326Z,9.40
2018-01-28T11:46:47.894Z,9.30
2018-01-28T11:51:50.673Z,9.20
2018-01-28T11:56:53.425Z,9.50
2018-01-28T12:01:56.957Z,9.30
2018-01-28T12:06:59.738Z,9.30
2018-01-28T12:12:03.311Z,9.30
2018-01-28T12:17:06.146Z,9.20
2018-01-28T12:22:08.930Z,9.30
2018-01-28T12:27:11.701Z,9.10
2018-01-28T12:32:14.495Z,9.10
2018-01-28T12:37:17.325Z,9.20
2018-01-28T12:42:20.103Z,9.40
2018-01-28T12:47:22.915Z,9.40
2018-01-28T12:52:25.694Z,9.40
2018-01-28T12:57:28.455Z,9.50
2018-01-28T13:02:32.017Z,9.70
2018-01-28T13:07:34.817Z,9.70
2018-01-28T13:12:37.688Z,9.60
2018-01-28T13:17:42.122Z,9.60
2018-01-28T13:22:45.248Z,9.60
2018-01-28T13:27:49.791Z,9.50
2018-01-28T13:32:52.656Z,9.60
2018-01-28T13:37:55.474Z,9.70
2018-01-28T13:42:58.460Z,9.90
2018-01-28T13:48:01.887Z,10.10
2018-01-28T13:53:05.300Z,10.30
2018-01-28T13:58:08.175Z,9.90
2018-01-28T14:03:11.092Z,10.00
2018-01-28T14:08:14.251Z,10.00
2018-01-28T14:13:18.192Z,10.10
2018-01-28T14:18:21.221Z,10.10
2018-01-28T14:23:24.627Z,10.00
2018-01-28T14:28:28.498Z,10.10
2018-01-28T14:33:32.598Z,10.10
2018-01-28T14:38:35.754Z,10.00
2018-01-28T14:43:38.741Z,10.00
2018-01-28T14:48:42.399Z,9.90
2018-01-28T14:53:45.247Z,9.80
2018-01-28T14:58:48.253Z,9.80
2018-01-28T15:03:51.032Z,9.70
2018-01-28T15:08:54.002Z,9.60
2018-01-28T15:13:58.448Z,9.40
2018-01-28T15:19:01.281Z,9.30
2018-01-28T15:24:04.192Z,9.30
2018-01-28T15:29:07.070Z,9.30
2018-01-28T15:34:10.778Z,9.40
2018-01-28T15:39:14.333Z,9.40
2018-01-28T15:44:17.916Z,9.30
2018-01-28T15:49:20.736Z,9.20
2018-01-28T15:54:23.539Z,9.20
2018-01-28T15:59:26.336Z,9.20
2018-01-28T16:09:52.781Z,9.10
2018-01-28T16:14:56.458Z,9.00
2018-01-28T16:20:16.411Z,9.20
2018-01-28T16:25:50.182Z,9.20
2018-01-28T16:31:10.955Z,9.10
2018-01-28T16:42:04.478Z,9.00
2018-01-28T16:58:29.424Z,9.00
2018-01-28T17:03:33.230Z,9.00
2018-01-28T17:08:36.131Z,9.00
2018-01-28T17:13:39.776Z,9.10
2018-01-28T17:18:42.603Z,9.10
2018-01-28T17:23:45.513Z,9.20
2018-01-28T17:28:48.404Z,9.10
2018-01-28T17:33:51.210Z,8.90
2018-01-28T17:38:54.136Z,8.90
2018-01-28T17:43:56.968Z,9.00
2018-01-28T17:49:00.556Z,9.00
2018-01-28T17:54:03.585Z,9.00
2018-01-28T17:59:07.235Z,9.00
2018-01-28T18:04:10.583Z,8.90
2018-01-28T18:09:13.434Z,9.00
2018-01-28T18:19:29.695Z,9.10
2018-01-28T18:24:32.573Z,9.10
2018-01-28T18:29:36.168Z,9.10
2018-01-28T18:34:39.012Z,9.10
2018-01-28T18:39:41.873Z,8.90
2018-01-28T18:44:44.758Z,9.20
2018-01-28T18:49:47.584Z,9.10
2018-01-28T18:54:51.188Z,9.10
2018-01-28T18:59:54.808Z,9.10
2018-01-28T19:04:58.393Z,9.20
2018-01-28T19:10:01.192Z,9.10
2018-01-28T19:15:04.076Z,9.20
2018-01-28T19:20:06.874Z,9.20
2018-01-28T19:25:09.740Z,9.20
2018-01-28T19:30:13.296Z,9.10
2018-01-28T19:35:16.540Z,9.10
2018-01-28T19:40:19.392Z,9.10
2018-01-28T19:45:22.263Z,9.20
2018-01-28T19:50:25.885Z,9.20
2018-01-28T19:55:29.452Z,9.20
2018-01-28T20:00:32.331Z,9.10
2018-01-28T20:05:35.120Z,9.10
2018-01-28T20:10:37.909Z,9.20
2018-01-28T20:15:41.493Z,9.30
2018-01-28T20:20:47.976Z,9.30
2018-01-28T20:25:50.880Z,9.30
2018-01-28T20:30:53.784Z,9.20
2018-01-28T20:35:56.766Z,9.30
2018-01-28T20:40:59.970Z,9.20
2018-01-28T20:46:02.756Z,9.20
2018-01-28T20:51:05.865Z,9.00
2018-01-28T20:56:11.032Z,9.20
2018-01-28T21:01:21.575Z,9.20
2018-01-28T21:06:35.351Z,9.20
2018-01-28T21:11:40.529Z,9.10
2018-01-28T21:16:54.124Z,9.20
2018-01-28T21:22:02.322Z,9.20
2018-01-28T21:27:12.470Z,9.30
2018-01-28T21:32:15.663Z,9.40
2018-01-28T21:37:19.308Z,9.40
2018-01-28T21:42:22.223Z,9.30
2018-01-28T21:47:25.099Z,9.40
2018-01-28T21:52:27.922Z,9.40
2018-01-28T21:57:30.740Z,9.40
2018-01-28T22:02:57.723Z,9.50
2018-01-28T22:13:53.575Z,9.40
2018-01-28T22:24:53.477Z,9.40
2018-01-28T22:30:24.644Z,9.40
2018-01-28T22:35:49.940Z,9.40
2018-01-28T22:41:13.597Z,9.40
2018-01-28T22:46:42.810Z,9.50
2018-01-28T22:52:04.718Z,9.50
2018-01-28T22:57:28.433Z,9.50
2018-01-28T23:02:32.562Z,9.40
2018-01-28T23:07:35.364Z,9.40
2018-01-28T23:12:38.155Z,9.50
2018-01-28T23:17:40.954Z,9.60
2018-01-28T23:22:43.744Z,9.60
2018-01-28T23:27:46.625Z,9.50
2018-01-28T23:32:50.348Z,9.50
2018-01-28T23:37:53.832Z,9.50
2018-01-28T23:42:58.561Z,9.50
2018-01-28T23:48:29.773Z,9.40
2018-01-28T23:53:34.442Z,9.30
2018-01-28T23:59:04.393Z,9.50
